Kirkstone Pass, United Kingdom
Current Conditions -  °F | °C
As of 5:50 AM on Friday 28 Nov 2014 (Local Time) from EGOM Reporting Station
Overcast Overcast  
Wind Chill: 36°   Ceiling: 100
Heat Index: 41°   Visibility: 1.3mi
Dew Point: 41°   Wind: 8mph
Humidity: 100%   Direction: 50°NE
Pressure: 29.68"   Gusts: NA
Location:  54.47°N, 2.92°W
Report Text: EGOM 280550Z AUTO 05007KT 2100 OVC001/// 05/05 Q1005
Loading
Personal Weather Stations






























Interactive Weather Map New forecast layout! Learn more

10-Day Weather Forecast

Advertisements
Track Severe Weather on mobile